createdAt,value
2023-02-28T00:00:26.237Z,96495.13
2023-02-28T00:05:31.652Z,96497.03
2023-02-28T00:10:36.083Z,96495.41
2023-02-28T00:15:39.734Z,96498.09
2023-02-28T00:20:44.798Z,96492.69
2023-02-28T00:25:48.674Z,96499.19
2023-02-28T00:30:52.506Z,96496.22
2023-02-28T00:36:06.065Z,96498.09
2023-02-28T00:41:10.303Z,96506.25
2023-02-28T00:46:14.022Z,96498.94
2023-02-28T00:51:19.092Z,96492.97
2023-02-28T00:56:22.791Z,96493.78
2023-02-28T01:01:26.565Z,96489.97
2023-02-28T01:06:31.813Z,96497.03
2023-02-28T01:11:36.338Z,96493.78
2023-02-28T01:16:39.994Z,96496.50
2023-02-28T01:21:44.998Z,96481.31
2023-02-28T01:26:48.614Z,96476.69
2023-02-28T01:31:52.302Z,96474.00
2023-02-28T01:37:00.010Z,96477.53
2023-02-28T01:42:03.669Z,96483.47
2023-02-28T01:47:07.341Z,96488.91
2023-02-28T01:52:19.365Z,96485.66
2023-02-28T01:57:25.427Z,96492.97
2023-02-28T02:02:30.113Z,96484.84
2023-02-28T02:07:37.652Z,96482.94
2023-02-28T02:13:01.685Z,96481.84
2023-02-28T02:18:09.466Z,96478.06
2023-02-28T02:24:01.646Z,96471.84
2023-02-28T02:29:25.653Z,96468.03
2023-02-28T02:34:44.013Z,96464.00
2023-02-28T02:39:54.205Z,96468.03
2023-02-28T02:45:02.359Z,96473.72
2023-02-28T02:50:10.046Z,96462.63
2023-02-28T02:55:16.950Z,96461.53
2023-02-28T03:00:23.188Z,96462.63
2023-02-28T03:05:29.429Z,96455.34
2023-02-28T03:10:39.337Z,96461.81
2023-02-28T03:15:55.189Z,96464.81
2023-02-28T03:21:05.170Z,96466.97
2023-02-28T03:26:12.619Z,96456.41
2023-02-28T03:31:19.711Z,96464.81
2023-02-28T03:36:26.996Z,96462.09
2023-02-28T03:41:34.187Z,96471.28
2023-02-28T03:46:41.380Z,96472.13
2023-02-28T03:51:47.827Z,96475.09
2023-02-28T03:56:55.075Z,96474.81
2023-02-28T04:01:59.890Z,96470.25
2023-02-28T04:07:06.985Z,96473.75
2023-02-28T04:12:11.087Z,96478.38
2023-02-28T04:17:14.773Z,96474.00
2023-02-28T04:22:20.314Z,96475.66
2023-02-28T04:27:24.479Z,96470.50
2023-02-28T04:32:28.165Z,96476.72
2023-02-28T04:37:35.994Z,96474.31
2023-02-28T04:42:39.611Z,96482.69
2023-02-28T04:47:43.237Z,96478.06
2023-02-28T04:52:48.300Z,96474.31
2023-02-28T04:57:51.969Z,96489.72
2023-02-28T05:02:55.631Z,96487.28
2023-02-28T05:08:01.152Z,96491.09
2023-02-28T05:13:04.760Z,96498.94
2023-02-28T05:18:08.563Z,96498.94
2023-02-28T05:23:15.410Z,96498.13
2023-02-28T05:28:19.019Z,96500.84
2023-02-28T05:33:22.698Z,96503.53
2023-02-28T05:38:28.097Z,96493.78
2023-02-28T05:43:31.989Z,96508.16
2023-02-28T05:48:36.429Z,96503.84
2023-02-28T05:53:42.969Z,96507.06
2023-02-28T05:58:46.585Z,96511.13
2023-02-28T06:03:50.234Z,96507.34
2023-02-28T06:08:55.058Z,96508.16
2023-02-28T06:13:58.669Z,96516.00
2023-02-28T06:19:03.806Z,96527.91
2023-02-28T06:24:08.761Z,96519.78
2023-02-28T06:29:11.548Z,96527.41
2023-02-28T06:34:14.855Z,96522.50
2023-02-28T06:39:19.207Z,96530.63
2023-02-28T06:44:22.213Z,96533.34
2023-02-28T06:49:25.461Z,96537.97
2023-02-28T06:54:29.663Z,96545.00
2023-02-28T06:59:32.941Z,96539.84
2023-02-28T07:04:36.650Z,96548.50
2023-02-28T07:09:40.970Z,96549.88
2023-02-28T07:14:43.829Z,96552.31
2023-02-28T07:19:46.672Z,96555.28
2023-02-28T07:24:50.869Z,96555.56
2023-02-28T07:29:54.099Z,96560.44
2023-02-28T07:34:57.177Z,96562.88
2023-02-28T07:40:02.154Z,96557.72
2023-02-28T07:45:05.605Z,96564.22
2023-02-28T07:50:10.282Z,96551.22
2023-02-28T07:55:14.623Z,96550.94
2023-02-28T08:00:18.001Z,96561.53
2023-02-28T08:09:44.875Z,96554.16
2023-02-28T08:14:47.682Z,96568.22
2023-02-28T08:19:50.552Z,96571.53
2023-02-28T08:24:54.731Z,96569.31
2023-02-28T08:29:57.596Z,96571.97
2023-02-28T08:35:00.422Z,96582.16
2023-02-28T08:40:05.942Z,96585.16
2023-02-28T08:45:09.350Z,96583.00
2023-02-28T08:50:13.694Z,96581.03
2023-02-28T08:55:18.287Z,96582.06
2023-02-28T09:00:22.533Z,96577.00
2023-02-28T09:05:25.634Z,96567.81
2023-02-28T09:10:30.514Z,96560.75
2023-02-28T09:15:33.340Z,96565.66
2023-02-28T09:20:40.342Z,96571.06
2023-02-28T09:25:49.319Z,96571.59
2023-02-28T09:30:53.790Z,96572.94
2023-02-28T09:36:00.806Z,96590.28
2023-02-28T09:41:06.690Z,96594.00
2023-02-28T09:46:20.427Z,96603.53
2023-02-28T09:51:35.462Z,96603.81
2023-02-28T09:56:42.286Z,96602.72
2023-02-28T10:01:52.241Z,96601.31
2023-02-28T10:06:55.186Z,96604.31
2023-02-28T10:12:06.491Z,96612.19
2023-02-28T10:17:14.239Z,96602.41
2023-02-28T10:22:19.881Z,96608.06
2023-02-28T10:27:25.645Z,96604.28
2023-02-28T10:32:31.065Z,96597.28
2023-02-28T10:37:39.108Z,96600.00
2023-02-28T10:42:43.284Z,96605.16
2023-02-28T10:47:56.377Z,96613.00
2023-02-28T10:53:09.862Z,96612.72
2023-02-28T10:58:28.197Z,96612.72
2023-02-28T11:03:34.112Z,96605.34
2023-02-28T11:08:46.705Z,96598.00
2023-02-28T11:13:54.754Z,96601.75
2023-02-28T11:18:57.806Z,96603.47
2023-02-28T11:24:03.750Z,96604.88
2023-02-28T11:29:15.252Z,96600.25
2023-02-28T11:34:26.792Z,96598.94
2023-02-28T11:39:30.031Z,96590.53
2023-02-28T11:44:56.814Z,96585.34
2023-02-28T11:50:09.972Z,96585.06
2023-02-28T11:55:19.041Z,96582.91
2023-02-28T12:00:38.112Z,96582.63
2023-02-28T12:05:46.886Z,96581.56
2023-02-28T12:10:59.741Z,96572.91
2023-02-28T12:16:28.966Z,96576.09
2023-02-28T12:21:42.213Z,96572.03
2023-02-28T12:26:46.962Z,96566.06
2023-02-28T12:31:54.059Z,96574.22
2023-02-28T12:36:58.275Z,96574.75
2023-02-28T12:42:04.118Z,96570.97
2023-02-28T12:47:17.442Z,96562.56
2023-02-28T12:52:26.119Z,96561.22
2023-02-28T12:57:33.728Z,96551.69
2023-02-28T13:03:02.692Z,96541.09
2023-02-28T13:08:26.369Z,96536.75
2023-02-28T13:13:31.571Z,96524.56
2023-02-28T13:18:41.356Z,96532.97
2023-02-28T13:24:01.309Z,96536.03
2023-02-28T13:29:05.703Z,96539.53
2023-02-28T13:34:19.009Z,96545.78
2023-02-28T13:39:51.771Z,96541.97
2023-02-28T13:45:25.551Z,96548.75
2023-02-28T13:50:38.874Z,96549.81
2023-02-28T13:55:47.103Z,96548.44
2023-02-28T14:01:17.519Z,96542.47
2023-02-28T14:06:26.092Z,96547.91
2023-02-28T14:11:32.471Z,96546.53
2023-02-28T14:16:40.250Z,96551.41
2023-02-28T14:21:53.080Z,96546.78
2023-02-28T14:27:04.409Z,96538.38
2023-02-28T14:32:13.259Z,96532.41
2023-02-28T14:37:21.715Z,96531.56
2023-02-28T14:42:33.353Z,96532.66
2023-02-28T14:47:37.368Z,96538.63
2023-02-28T14:52:45.261Z,96533.50
2023-02-28T14:57:53.642Z,96525.88
2023-02-28T15:02:57.534Z,96530.22
2023-02-28T15:08:08.056Z,96543.50
2023-02-28T15:13:14.745Z,96544.59
2023-02-28T15:18:28.014Z,96540.56
2023-02-28T15:23:32.697Z,96544.84
2023-02-28T15:28:35.535Z,96548.69
2023-02-28T15:33:40.740Z,96539.94
2023-02-28T15:38:45.802Z,96547.41
2023-02-28T15:43:48.606Z,96551.03
2023-02-28T15:48:53.759Z,96547.78
2023-02-28T15:53:59.742Z,96545.09
2023-02-28T15:59:04.585Z,96548.91
2023-02-28T16:04:13.076Z,96547.56
2023-02-28T16:09:18.255Z,96559.53
2023-02-28T16:14:23.991Z,96567.66
2023-02-28T16:19:27.814Z,96575.84
2023-02-28T16:24:32.943Z,96574.50
2023-02-28T16:29:37.449Z,96589.69
2023-02-28T16:34:40.276Z,96583.19
2023-02-28T16:39:45.242Z,96593.00
2023-02-28T16:44:48.161Z,96589.75
2023-02-28T16:49:51.039Z,96586.50
2023-02-28T16:54:55.463Z,96588.97
2023-02-28T16:59:58.340Z,96597.38
2023-02-28T17:05:01.163Z,96600.34
2023-02-28T17:10:14.507Z,96600.94
2023-02-28T17:15:18.995Z,96602.28
2023-02-28T17:20:24.264Z,96599.84
2023-02-28T17:25:28.549Z,96605.53
2023-02-28T17:30:36.374Z,96609.09
2023-02-28T17:35:39.254Z,96621.56
2023-02-28T17:40:43.423Z,96629.69
2023-02-28T17:45:46.272Z,96636.22
2023-02-28T17:50:49.097Z,96636.78
2023-02-28T17:55:53.232Z,96647.34
2023-02-28T18:00:56.062Z,96650.06
2023-02-28T18:05:59.031Z,96654.97
2023-02-28T18:11:04.082Z,96667.72
2023-02-28T18:16:07.301Z,96660.66
2023-02-28T18:21:11.186Z,96669.88
2023-02-28T18:26:15.684Z,96672.59
2023-02-28T18:31:20.761Z,96671.25
2023-02-28T18:36:23.646Z,96670.97
2023-02-28T18:41:28.994Z,96673.69
2023-02-28T18:46:32.206Z,96688.34
2023-02-28T18:51:35.425Z,96687.50
2023-02-28T18:56:39.589Z,96688.88
2023-02-28T19:01:42.428Z,96702.72
2023-02-28T19:06:45.530Z,96701.06
2023-02-28T19:11:50.259Z,96688.34
2023-02-28T19:16:53.192Z,96703.53
2023-02-28T19:21:56.340Z,96691.59
2023-02-28T19:27:00.693Z,96703.78
2023-02-28T19:32:04.183Z,96703.25
2023-02-28T19:37:07.159Z,96703.00
2023-02-28T19:42:14.345Z,96705.97
2023-02-28T19:47:17.670Z,96703.50
2023-02-28T19:52:20.600Z,96699.75
2023-02-28T19:57:24.784Z,96704.88
2023-02-28T20:02:27.694Z,96712.22
2023-02-28T20:07:32.302Z,96710.00
2023-02-28T20:12:36.485Z,96705.41
2023-02-28T20:17:40.694Z,96709.75
2023-02-28T20:22:43.483Z,96708.13
2023-02-28T20:27:47.707Z,96697.53
2023-02-28T20:32:50.900Z,96706.75
2023-02-28T20:37:54.205Z,96701.34
2023-02-28T20:42:58.373Z,96704.88
2023-02-28T20:48:01.147Z,96699.16
2023-02-28T20:53:03.931Z,96701.34
2023-02-28T20:58:08.119Z,96710.28
2023-02-28T21:03:10.950Z,96699.16
2023-02-28T21:08:13.869Z,96705.41
2023-02-28T21:13:19.148Z,96717.59
2023-02-28T21:18:22.040Z,96720.31
2023-02-28T21:23:25.565Z,96720.06
2023-02-28T21:28:29.777Z,96722.19
2023-02-28T21:33:32.910Z,96716.00
2023-02-28T21:38:36.808Z,96722.75
2023-02-28T21:43:41.270Z,96714.63
2023-02-28T21:48:45.007Z,96719.50
2023-02-28T21:53:48.344Z,96717.59
2023-02-28T21:59:00.342Z,96713.00
2023-02-28T22:04:04.896Z,96713.81
2023-02-28T22:09:09.456Z,96712.19
2023-02-28T22:14:14.171Z,96715.72
2023-02-28T22:19:17.649Z,96705.13
2023-02-28T22:24:24.141Z,96717.06
2023-02-28T22:29:29.030Z,96704.59
2023-02-28T22:34:31.978Z,96695.13
2023-02-28T22:39:34.819Z,96698.34
2023-02-28T22:44:38.984Z,96694.03
2023-02-28T22:49:41.836Z,96696.19
2023-02-28T22:54:44.655Z,96698.88
2023-02-28T22:59:48.866Z,96699.19
2023-02-28T23:04:51.750Z,96694.03
2023-02-28T23:09:54.771Z,96699.44
2023-02-28T23:14:59.618Z,96696.72
2023-02-28T23:20:03.911Z,96691.56
2023-02-28T23:25:07.901Z,96695.38
2023-02-28T23:30:13.639Z,96697.53
2023-02-28T23:35:17.107Z,96694.28
2023-02-28T23:40:20.040Z,96690.50
2023-02-28T23:45:24.207Z,96693.19
2023-02-28T23:50:27.013Z,96690.78
2023-02-28T23:55:30.497Z,96685.06
